Time;durP1;ratioP1;P1;durP2;ratioP2;P2;SDS_P1;SDS_P2;PMS_P1;PMS_P2;Temp;Humidity;BMP_temperature;BMP_pressure;BME280_temperature;BME280_humidity;BME280_pressure;Samples;Min_cycle;Max_cycle;Signal;HPM_P1;HPM_P2
2022/09/08 00:01:59;;;;;;;26.55;6.13;;;;;;;17.41;100.00;100785.03;5018565;28;20500;-43
2022/09/08 00:04:25;;;;;;;15.93;6.38;;;;;;;17.39;100.00;100779.00;5029668;28;20040;-43
2022/09/08 00:06:51;;;;;;;29.75;7.38;;;;;;;17.38;100.00;100778.16;5017817;28;20029;-43
2022/09/08 00:09:16;;;;;;;23.85;6.50;;;;;;;17.39;100.00;100770.84;5015334;28;20431;-43
2022/09/08 00:11:42;;;;;;;23.55;6.97;;;;;;;17.47;100.00;100770.50;5028255;28;20049;-43
2022/09/08 00:14:08;;;;;;;26.67;6.80;;;;;;;17.43;100.00;100769.28;5013180;28;20440;-42
2022/09/08 00:16:33;;;;;;;25.83;7.57;;;;;;;17.41;100.00;100775.00;5031116;28;20458;-42
2022/09/08 00:18:59;;;;;;;31.63;7.93;;;;;;;17.38;100.00;100769.16;5034918;28;20029;-43
2022/09/08 00:21:26;;;;;;;32.70;7.38;;;;;;;17.34;100.00;100758.72;5015109;28;20140;-43
2022/09/08 00:23:52;;;;;;;19.95;7.20;;;;;;;17.35;100.00;100754.13;5034028;28;20037;-43
2022/09/08 00:26:20;;;;;;;28.33;8.38;;;;;;;17.38;100.00;100759.13;5034325;28;20100;-42
2022/09/08 00:28:46;;;;;;;31.13;8.23;;;;;;;17.34;100.00;100753.28;5035037;28;20029;-42
2022/09/08 00:31:12;;;;;;;22.95;8.38;;;;;;;17.35;100.00;100759.56;5015945;28;20036;-43
2022/09/08 00:33:37;;;;;;;28.67;8.52;;;;;;;17.30;100.00;100749.38;5014099;28;20066;-43
2022/09/08 00:36:03;;;;;;;34.65;8.40;;;;;;;17.34;100.00;100747.03;5032273;28;20086;-42
2022/09/08 00:38:30;;;;;;;33.78;9.30;;;;;;;17.29;100.00;100734.09;5015905;28;20037;-42
2022/09/08 00:40:56;;;;;;;22.33;8.00;;;;;;;17.22;100.00;100746.13;5033575;28;20036;-43
2022/09/08 00:43:37;;;;;;;31.30;9.27;;;;;;;17.18;100.00;100732.16;5026372;28;20063;-44
2022/09/08 00:46:08;;;;;;;33.45;9.35;;;;;;;17.18;100.00;100725.91;5015546;28;20390;-43
2022/09/08 00:48:40;;;;;;;32.38;9.00;;;;;;;17.14;100.00;100725.53;5036118;28;20045;-43
2022/09/08 00:51:06;;;;;;;29.50;9.60;;;;;;;17.12;100.00;100730.38;5010027;28;20044;-42
2022/09/08 00:53:33;;;;;;;20.20;8.80;;;;;;;17.03;100.00;100734.44;5033858;28;20033;-43
2022/09/08 00:55:58;;;;;;;24.13;8.30;;;;;;;17.02;100.00;100743.66;5008115;28;20030;-43
2022/09/08 00:58:24;;;;;;;34.03;9.38;;;;;;;16.96;100.00;100739.97;5035610;28;20539;-43
2022/09/08 01:00:49;;;;;;;39.00;10.18;;;;;;;16.88;100.00;100737.56;5005563;28;20033;-43
2022/09/08 01:03:15;;;;;;;25.50;9.00;;;;;;;16.90;100.00;100724.53;5018081;28;20117;-43
2022/09/08 01:05:52;;;;;;;38.72;9.40;;;;;;;16.86;100.00;100726.91;5023227;28;20428;-42
2022/09/08 01:14:17;;;;;;;41.72;10.50;;;;;;;16.76;100.00;100723.00;5017239;28;20127;-42
2022/09/08 01:16:46;;;;;;;34.35;10.15;;;;;;;16.77;100.00;100725.53;5032756;28;20080;-42
2022/09/08 01:19:32;;;;;;;31.60;12.00;;;;;;;16.78;100.00;100716.31;5034716;28;20040;-44
2022/09/08 01:22:35;;;;;;;36.63;11.07;;;;;;;16.76;100.00;100723.84;5011852;28;20041;-42
2022/09/08 01:25:06;;;;;;;30.60;10.85;;;;;;;16.79;100.00;100723.41;5020179;28;20030;-42
2022/09/08 01:27:33;;;;;;;29.08;10.40;;;;;;;16.81;100.00;100731.34;5022540;28;20393;-42
2022/09/08 01:30:04;;;;;;;43.42;10.45;;;;;;;16.81;100.00;100731.34;5029903;28;20026;-42
2022/09/08 01:32:32;;;;;;;33.47;10.40;;;;;;;16.82;100.00;100728.38;5031599;28;20112;-44
2022/09/08 01:34:58;;;;;;;38.42;12.27;;;;;;;16.80;100.00;100718.84;5007794;28;20568;-42
2022/09/08 01:37:24;;;;;;;34.97;12.30;;;;;;;16.78;100.00;100713.59;5010559;28;20121;-43
2022/09/08 01:39:49;;;;;;;30.13;12.32;;;;;;;16.87;100.00;100708.69;4997550;28;20022;-44
2022/09/08 01:42:14;;;;;;;34.58;12.55;;;;;;;16.88;100.00;100700.31;5024046;28;20037;-43
2022/09/08 01:44:40;;;;;;;26.50;11.13;;;;;;;16.89;100.00;100703.88;5032017;28;20539;-43
2022/09/08 01:47:05;;;;;;;31.13;11.20;;;;;;;16.89;100.00;100706.59;5032145;28;20072;-42
2022/09/08 01:49:30;;;;;;;38.65;10.73;;;;;;;16.98;100.00;100709.81;5031772;28;20089;-43
2022/09/08 01:51:56;;;;;;;33.05;10.82;;;;;;;17.00;100.00;100713.16;5030413;28;20477;-44
2022/09/08 01:54:21;;;;;;;28.30;11.38;;;;;;;16.99;100.00;100708.78;5030483;28;20030;-44
2022/09/08 01:56:47;;;;;;;29.45;11.20;;;;;;;17.01;100.00;100702.06;5028794;28;20030;-43
2022/09/08 01:59:12;;;;;;;36.15;11.95;;;;;;;17.04;100.00;100695.34;5023645;28;20108;-41
2022/09/08 02:01:37;;;;;;;38.80;11.90;;;;;;;17.06;100.00;100695.91;5031558;28;20473;-43
2022/09/08 02:04:03;;;;;;;36.42;11.40;;;;;;;17.08;100.00;100697.34;5032115;28;20217;-43
2022/09/08 02:06:29;;;;;;;34.08;12.50;;;;;;;17.03;100.00;100701.81;5072028;23;20033;-76
2022/09/08 02:08:55;;;;;;;38.28;11.65;;;;;;;17.03;100.00;100702.63;5037659;28;20021;-76
2022/09/08 02:11:21;;;;;;;32.13;11.05;;;;;;;17.01;100.00;100695.75;5029852;28;20033;-76
2022/09/08 02:13:47;;;;;;;35.90;12.65;;;;;;;17.05;100.00;100696.97;5041794;28;20116;-75
2022/09/08 02:16:12;;;;;;;34.85;11.32;;;;;;;17.11;100.00;100698.78;5058768;28;20048;-75
2022/09/08 02:18:39;;;;;;;35.45;11.68;;;;;;;17.07;100.00;100695.69;5059402;28;20041;-76
2022/09/08 02:21:06;;;;;;;30.20;10.15;;;;;;;17.06;100.00;100688.59;5057623;28;20476;-75
2022/09/08 02:23:32;;;;;;;30.45;11.05;;;;;;;17.03;100.00;100699.09;5062020;28;20459;-76
2022/09/08 02:25:57;;;;;;;31.98;9.98;;;;;;;17.07;100.00;100692.16;5053303;28;20032;-76
2022/09/08 02:28:23;;;;;;;31.55;10.77;;;;;;;17.09;100.00;100695.47;5041823;28;20109;-75
2022/09/08 02:30:48;;;;;;;38.70;11.00;;;;;;;17.12;100.00;100689.56;5047149;28;20028;-76
2022/09/08 02:33:15;;;;;;;39.92;10.43;;;;;;;17.14;100.00;100694.78;5053356;28;20389;-75
2022/09/08 02:35:41;;;;;;;31.65;9.80;;;;;;;17.15;100.00;100697.28;5056252;28;20058;-75
2022/09/08 02:38:06;;;;;;;26.38;8.93;;;;;;;17.13;100.00;100693.94;5051026;28;20048;-75
2022/09/08 02:40:31;;;;;;;30.25;10.25;;;;;;;17.13;100.00;100701.28;5059646;28;20037;-75
2022/09/08 02:42:57;;;;;;;33.05;9.35;;;;;;;17.11;100.00;100694.19;5056369;28;20040;-76
2022/09/08 02:45:22;;;;;;;26.55;7.97;;;;;;;17.04;100.00;100687.19;5060398;28;20062;-75
2022/09/08 02:47:48;;;;;;;26.75;8.20;;;;;;;17.06;100.00;100680.44;5049362;28;20093;-76
2022/09/08 02:50:13;;;;;;;26.55;7.15;;;;;;;17.00;100.00;100684.06;5060491;28;20067;-74
2022/09/08 02:52:38;;;;;;;29.63;5.43;;;;;;;17.03;100.00;100685.50;5060264;28;20036;-75
2022/09/08 02:55:04;;;;;;;25.13;5.03;;;;;;;17.03;100.00;100674.63;5056425;28;20033;-76
2022/09/08 02:57:30;;;;;;;19.27;5.10;;;;;;;17.12;100.00;100678.69;5051993;28;20036;-76
2022/09/08 02:59:55;;;;;;;27.13;5.68;;;;;;;17.14;100.00;100676.59;5055450;28;20040;-76
2022/09/08 03:02:21;;;;;;;17.80;4.68;;;;;;;17.16;100.00;100671.72;5048994;28;20110;-76
2022/09/08 03:04:46;;;;;;;25.70;5.75;;;;;;;17.17;100.00;100678.84;5051324;28;20028;-75
2022/09/08 03:07:12;;;;;;;19.92;4.80;;;;;;;17.17;100.00;100673.41;5044621;28;20056;-75
2022/09/08 03:09:37;;;;;;;25.00;6.10;;;;;;;17.16;100.00;100669.00;5033208;28;20017;-76
2022/09/08 03:12:04;;;;;;;27.70;5.25;;;;;;;17.16;100.00;100668.19;5031533;28;20029;-75
2022/09/08 03:14:29;;;;;;;24.45;5.50;;;;;;;17.07;100.00;100663.06;5038075;28;20061;-75
2022/09/08 03:16:56;;;;;;;20.90;5.07;;;;;;;17.09;100.00;100662.84;5038432;28;20087;-75
2022/09/08 03:19:21;;;;;;;23.40;5.05;;;;;;;17.13;100.00;100669.47;5035170;28;20499;-76
2022/09/08 03:21:47;;;;;;;32.95;5.75;;;;;;;17.10;100.00;100669.94;5030791;28;20041;-76
2022/09/08 03:24:13;;;;;;;19.88;5.80;;;;;;;17.07;100.00;100664.97;5030506;28;20088;-75
2022/09/08 03:26:39;;;;;;;20.27;5.45;;;;;;;17.03;100.00;100674.63;5030196;28;20029;-76
2022/09/08 03:29:06;;;;;;;20.92;5.00;;;;;;;16.96;100.00;100668.47;5030127;28;20396;-76
2022/09/08 03:31:31;;;;;;;25.17;6.03;;;;;;;16.96;100.00;100671.19;5012380;28;20033;-75
2022/09/08 03:33:56;;;;;;;24.40;6.80;;;;;;;16.94;100.00;100665.97;5030511;28;20039;-76
2022/09/08 03:36:22;;;;;;;21.33;6.35;;;;;;;16.87;100.00;100663.31;5030818;28;20045;-76
2022/09/08 03:38:48;;;;;;;23.95;5.82;;;;;;;16.86;100.00;100658.94;5030866;28;20025;-76
2022/09/08 03:41:14;;;;;;;22.42;6.63;;;;;;;16.89;100.00;100661.19;5030602;28;20030;-75
2022/09/08 03:43:44;;;;;;;35.33;7.90;;;;;;;16.93;100.00;100658.00;5030753;28;20032;-76
2022/09/08 03:46:10;;;;;;;28.50;7.65;;;;;;;16.94;100.00;100662.41;5030116;28;20029;-75
2022/09/08 03:48:36;;;;;;;20.17;6.53;;;;;;;16.88;100.00;100656.00;5030168;28;20373;-75
2022/09/08 03:51:28;;;;;;;36.85;7.80;;;;;;;16.89;100.00;100658.47;5032791;28;20045;-75
2022/09/08 03:54:46;;;;;;;25.92;6.75;;;;;;;16.88;100.00;100656.84;5024227;28;20095;-75
2022/09/08 03:56:41;;;;;;;25.60;7.55;;;;;;;16.82;100.00;100665.06;5033327;28;20041;-75
2022/09/08 03:59:06;;;;;;;26.80;8.02;;;;;;;16.76;100.00;100668.66;5035435;28;20025;-76
2022/09/08 04:01:32;;;;;;;38.75;9.18;;;;;;;16.72;100.00;100671.00;5032561;28;20072;-75
2022/09/08 04:03:58;;;;;;;36.70;8.90;;;;;;;16.70;100.00;100664.97;5034812;28;20025;-75
2022/09/08 04:06:24;;;;;;;30.10;10.02;;;;;;;16.67;100.00;100670.84;5034667;28;20037;-75
2022/09/08 04:08:49;;;;;;;33.88;11.10;;;;;;;16.57;100.00;100665.13;5037121;28;20108;-75
2022/09/08 04:11:14;;;;;;;29.88;9.98;;;;;;;16.55;100.00;100661.78;5023466;28;20616;-76
2022/09/08 04:13:40;;;;;;;28.70;10.88;;;;;;;16.54;100.00;100665.56;5024296;28;20453;-75
2022/09/08 04:16:05;;;;;;;34.58;10.90;;;;;;;16.50;100.00;100664.34;5047119;28;20048;-76
2022/09/08 04:18:31;;;;;;;42.15;11.32;;;;;;;16.51;100.00;100666.00;5042990;28;20033;-76
2022/09/08 04:21:01;;;;;;;39.95;11.43;;;;;;;16.50;100.00;100654.31;5037197;28;20120;-75
2022/09/08 04:23:27;;;;;;;40.83;11.00;;;;;;;16.54;100.00;100649.28;5034451;28;20064;-75
2022/09/08 04:26:03;;;;;;;27.98;10.38;;;;;;;16.50;100.00;100656.19;5032857;28;20446;-75
2022/09/08 04:28:29;;;;;;;36.10;11.10;;;;;;;16.47;100.00;100652.03;5011849;28;20029;-76
2022/09/08 04:30:55;;;;;;;32.28;11.60;;;;;;;16.48;100.00;100644.72;5031592;28;20029;-75
2022/09/08 04:33:20;;;;;;;37.67;11.30;;;;;;;16.43;100.00;100642.69;5030589;28;20041;-76
2022/09/08 04:35:45;;;;;;;35.97;10.73;;;;;;;16.47;100.00;100649.31;5032747;28;20094;-76
2022/09/08 04:38:11;;;;;;;39.13;11.77;;;;;;;16.43;100.00;100640.81;5033019;28;20116;-76
2022/09/08 04:40:36;;;;;;;39.65;11.05;;;;;;;16.49;100.00;100643.69;5032021;28;20349;-76
2022/09/08 04:43:01;;;;;;;38.10;11.05;;;;;;;16.48;100.00;100652.88;5033304;28;20025;-76
2022/09/08 04:45:27;;;;;;;32.50;10.45;;;;;;;16.46;100.00;100653.94;5032249;28;20041;-75
2022/09/08 04:47:52;;;;;;;37.83;11.60;;;;;;;16.46;100.00;100653.13;5023577;28;20128;-75
2022/09/08 04:50:17;;;;;;;35.33;11.82;;;;;;;16.45;100.00;100649.53;5033630;28;20030;-75
2022/09/08 04:52:43;;;;;;;40.72;11.20;;;;;;;16.43;100.00;100650.84;5032282;28;20108;-75
2022/09/08 04:55:10;;;;;;;41.90;12.02;;;;;;;16.43;100.00;100643.53;5029720;28;20053;-75
2022/09/08 04:57:36;;;;;;;34.53;11.35;;;;;;;16.40;100.00;100652.13;5003028;28;20040;-76
2022/09/08 05:00:03;;;;;;;40.38;11.00;;;;;;;16.39;100.00;100653.16;5014049;28;20117;-76
2022/09/08 05:02:29;;;;;;;29.58;11.25;;;;;;;16.33;100.00;100653.25;5000098;28;20124;-75
2022/09/08 05:04:54;;;;;;;32.60;11.60;;;;;;;16.18;100.00;100653.59;5037854;28;20060;-75
2022/09/08 05:07:20;;;;;;;27.40;9.50;;;;;;;16.17;100.00;100652.78;5034229;28;20057;-75
2022/09/08 05:09:46;;;;;;;36.38;11.23;;;;;;;16.19;100.00;100652.53;5027505;28;20106;-75
2022/09/08 05:12:11;;;;;;;34.83;10.68;;;;;;;16.19;100.00;100652.53;5034336;28;20126;-75
2022/09/08 05:14:37;;;;;;;27.73;11.45;;;;;;;16.10;100.00;100654.72;5038729;28;20500;-77
2022/09/08 05:17:02;;;;;;;38.53;13.52;;;;;;;16.06;100.00;100653.50;5041798;28;20314;-75
2022/09/08 05:19:27;;;;;;;41.63;15.02;;;;;;;16.04;100.00;100650.19;5040449;28;20022;-74
2022/09/08 05:21:53;;;;;;;40.50;15.45;;;;;;;16.01;100.00;100645.19;5036518;28;20059;-75
2022/09/08 05:24:19;;;;;;;41.03;17.45;;;;;;;16.04;100.00;100657.50;5041756;28;20024;-74
2022/09/08 05:26:44;;;;;;;43.63;17.58;;;;;;;16.00;100.00;100649.78;5040087;28;20030;-74
2022/09/08 05:29:09;;;;;;;54.65;17.95;;;;;;;16.02;100.00;100649.56;5028116;28;20436;-74
2022/09/08 05:31:35;;;;;;;40.58;18.02;;;;;;;15.96;100.00;100643.16;5030021;28;20094;-75
2022/09/08 05:34:01;;;;;;;40.75;19.40;;;;;;;15.92;100.00;100647.34;5057017;28;20037;-77
2022/09/08 05:36:29;;;;;;;47.20;19.00;;;;;;;15.85;100.00;100645.72;5050664;28;20056;-76
2022/09/08 05:38:55;;;;;;;42.78;18.65;;;;;;;15.85;100.00;100643.88;5033535;28;20029;-78
2022/09/08 05:41:21;;;;;;;45.55;18.15;;;;;;;15.82;100.00;100644.28;5043258;28;20073;-79
2022/09/08 05:43:46;;;;;;;45.85;17.92;;;;;;;15.84;100.00;100622.38;5038857;28;20097;-79
2022/09/08 05:46:12;;;;;;;46.72;18.73;;;;;;;15.84;100.00;100631.34;5044429;28;20041;-79
2022/09/08 05:48:37;;;;;;;38.95;16.85;;;;;;;15.87;100.00;100628.19;5041016;28;20013;-78
2022/09/08 05:51:08;;;;;;;39.28;16.77;;;;;;;15.86;100.00;100637.38;5032423;28;20498;-80
2022/09/08 05:53:33;;;;;;;37.63;16.33;;;;;;;15.89;100.00;100633.41;5033327;28;20029;-78
2022/09/08 05:56:01;;;;;;;45.63;18.73;;;;;;;15.82;100.00;100628.00;5032507;28;20242;-78
2022/09/08 05:58:27;;;;;;;38.55;16.88;;;;;;;15.82;100.00;100624.47;5016815;28;20095;-77
2022/09/08 06:00:54;;;;;;;39.22;16.15;;;;;;;15.86;100.00;100626.53;5018325;28;20033;-77
2022/09/08 06:03:20;;;;;;;44.72;15.93;;;;;;;15.85;100.00;100633.03;5018278;28;20400;-77
2022/09/08 06:05:45;;;;;;;43.88;16.25;;;;;;;15.81;100.00;100637.22;5033211;28;20028;-77
2022/09/08 06:08:11;;;;;;;36.92;14.27;;;;;;;15.81;100.00;100637.22;5027733;28;20049;-78
2022/09/08 06:10:37;;;;;;;36.35;14.93;;;;;;;15.88;100.00;100635.28;5032596;28;20112;-79
2022/09/08 06:13:03;;;;;;;28.42;12.30;;;;;;;15.80;100.00;100638.28;5032610;28;20051;-78
2022/09/08 06:15:29;;;;;;;31.85;11.90;;;;;;;15.81;100.00;100645.34;5030374;28;20369;-75
2022/09/08 06:17:54;;;;;;;36.13;13.38;;;;;;;15.82;100.00;100638.03;5036248;28;20047;-74
2022/09/08 06:20:20;;;;;;;38.38;13.13;;;;;;;15.86;100.00;100636.56;5032924;28;20044;-75
2022/09/08 06:22:45;;;;;;;27.33;13.27;;;;;;;15.92;100.00;100641.09;5032452;28;20424;-76
2022/09/08 06:25:10;;;;;;;30.58;13.10;;;;;;;15.92;100.00;100631.06;5033295;28;20053;-77
2022/09/08 06:28:14;;;;;;;36.80;14.60;;;;;;;15.92;100.00;100631.06;5032251;28;20175;-77
2022/09/08 06:30:39;;;;;;;38.35;15.00;;;;;;;15.94;100.00;100628.13;5032848;28;20473;-77
2022/09/08 06:33:11;;;;;;;40.83;15.63;;;;;;;16.00;100.00;100636.19;5014995;28;20037;-76
2022/09/08 06:35:53;;;;;;;35.95;15.95;;;;;;;16.05;100.00;100634.72;5014204;28;20078;-76
2022/09/08 06:38:25;;;;;;;39.60;16.40;;;;;;;16.09;100.00;100635.91;5014810;28;20027;-76
2022/09/08 06:41:00;;;;;;;41.97;16.45;;;;;;;16.08;100.00;100639.69;5014946;28;20457;-76
2022/09/08 06:43:44;;;;;;;40.47;17.83;;;;;;;16.11;100.00;100640.06;5015771;28;20469;-75
2022/09/08 06:46:16;;;;;;;40.83;18.20;;;;;;;16.18;100.00;100637.31;5031773;28;20029;-77
2022/09/08 06:48:42;;;;;;;40.65;19.50;;;;;;;16.20;100.00;100638.75;5014450;28;20083;-77
2022/09/08 06:51:26;;;;;;;41.53;18.58;;;;;;;16.28;100.00;100634.91;5032686;28;20021;-78
2022/09/08 06:54:14;;;;;;;41.50;20.15;;;;;;;16.31;100.00;100639.06;5032506;28;20052;-76
2022/09/08 06:57:00;;;;;;;47.08;20.92;;;;;;;16.29;100.00;100636.56;5031502;28;20028;-77
2022/09/08 06:59:31;;;;;;;51.60;24.10;;;;;;;16.32;100.00;100646.97;5031503;28;20062;-75
2022/09/08 07:02:23;;;;;;;55.05;24.45;;;;;;;16.37;100.00;100643.59;5030964;28;20033;-77
2022/09/08 07:04:58;;;;;;;57.90;25.35;;;;;;;16.35;100.00;100635.69;5000245;28;20068;-77
2022/09/08 07:07:52;;;;;;;57.38;25.95;;;;;;;16.36;100.00;100633.78;5031391;28;20061;-76
2022/09/08 07:10:31;;;;;;;61.60;27.42;;;;;;;16.38;100.00;100640.66;5014908;28;20037;-77
2022/09/08 07:13:02;;;;;;;64.53;26.65;;;;;;;16.39;100.00;100642.31;5033116;28;20091;-78
2022/09/08 07:15:39;;;;;;;59.22;28.15;;;;;;;16.36;100.00;100642.75;5038204;28;20029;-76
2022/09/08 07:18:24;;;;;;;63.38;27.88;;;;;;;16.33;100.00;100650.53;5016843;28;20037;-77
2022/09/08 07:20:55;;;;;;;53.53;28.17;;;;;;;16.38;100.00;100658.84;5015979;28;20080;-77
2022/09/08 07:23:24;;;;;;;55.08;26.25;;;;;;;16.45;100.00;100649.53;5013979;28;20095;-77
2022/09/08 07:25:57;;;;;;;52.58;25.55;;;;;;;16.42;100.00;100652.72;5017984;28;20021;-78
2022/09/08 07:28:25;;;;;;;50.25;24.73;;;;;;;16.53;100.00;100653.03;5016978;28;20048;-77
2022/09/08 07:30:55;;;;;;;;;;;;;;;16.52;100.00;100649.47;5017966;28;20066;-77
2022/09/08 07:33:24;;;;;;;43.50;22.00;;;;;;;16.43;100.00;100648.97;5017585;28;20311;-75
2022/09/08 07:36:04;;;;;;;40.38;21.60;;;;;;;16.52;100.00;100652.19;5036728;28;20025;-78
2022/09/08 07:38:36;;;;;;;46.22;21.67;;;;;;;16.61;100.00;100656.28;5035812;28;20112;-77
2022/09/08 07:41:03;;;;;;;49.65;23.33;;;;;;;16.60;100.00;100651.06;5035135;28;20029;-77
2022/09/08 07:43:29;;;;;;;42.50;21.60;;;;;;;16.54;100.00;100643.84;5017270;28;20346;-77
2022/09/08 07:46:27;;;;;;;52.30;21.95;;;;;;;16.55;100.00;100645.47;5034740;28;20039;-77
2022/09/08 07:49:31;;;;;;;47.70;18.42;;;;;;;16.59;100.00;100650.25;5034537;28;20022;-76
2022/09/08 07:52:15;;;;;;;27.25;11.82;;;;;;;16.50;100.00;100653.47;5036640;28;20026;-76
2022/09/08 07:55:02;;;;;;;25.08;9.65;;;;;;;16.55;100.00;100656.34;5016975;28;20366;-76
2022/09/08 07:57:42;;;;;;;17.13;6.65;;;;;;;16.60;100.00;100648.34;5036031;28;20049;-75
2022/09/08 08:00:14;;;;;;;14.95;5.55;;;;;;;16.52;100.00;100656.81;5018749;28;20465;-76
2022/09/08 08:03:18;;;;;;;19.30;5.82;;;;;;;16.72;100.00;100649.25;5037971;28;20018;-75
2022/09/08 08:05:47;;;;;;;11.70;4.72;;;;;;;16.89;100.00;100646.78;4953398;29;20689;-75
2022/09/08 08:08:16;;;;;;;20.20;4.60;;;;;;;16.89;100.00;100638.63;4937991;29;20066;-76
2022/09/08 08:10:50;;;;;;;16.70;5.15;;;;;;;17.06;100.00;100660.56;4994555;28;20044;-75
2022/09/08 08:13:22;;;;;;;20.55;5.63;;;;;;;17.29;100.00;100657.94;5015893;28;20335;-76
2022/09/08 08:15:58;;;;;;;15.80;4.97;;;;;;;17.88;97.99;100665.50;5034198;28;20403;-76
2022/09/08 08:18:38;;;;;;;14.50;4.93;;;;;;;17.94;92.93;100670.81;5034309;28;20025;-76
2022/09/08 08:21:08;;;;;;;12.85;4.68;;;;;;;18.25;93.62;100663.38;5032471;28;20083;-77
2022/09/08 08:24:08;;;;;;;26.00;6.10;;;;;;;18.54;91.75;100660.75;5015805;28;20667;-76
2022/09/08 08:26:39;;;;;;;14.27;5.13;;;;;;;18.74;88.02;100658.44;5033564;28;20079;-75
2022/09/08 08:29:39;;;;;;;16.67;5.55;;;;;;;18.58;88.32;100681.81;5030418;28;20461;-75
2022/09/08 08:32:14;;;;;;;16.92;5.60;;;;;;;18.09;88.87;100672.22;5011104;28;20038;-75
2022/09/08 08:34:45;;;;;;;25.63;7.30;;;;;;;18.05;90.78;100671.06;5006462;28;20416;-76
2022/09/08 08:37:17;;;;;;;23.48;6.90;;;;;;;18.24;91.47;100666.31;5016625;28;20037;-77
2022/09/08 08:39:45;;;;;;;15.82;6.95;;;;;;;18.16;91.64;100667.50;5016257;28;20492;-76
2022/09/08 08:42:29;;;;;;;25.27;8.82;;;;;;;17.94;90.64;100665.38;5016234;28;20341;-76
2022/09/08 08:45:15;;;;;;;24.80;10.43;;;;;;;18.98;89.42;100664.69;5035231;28;20029;-75
2022/09/08 08:48:07;;;;;;;20.77;9.30;;;;;;;19.91;84.03;100675.44;5033586;28;20036;-76
2022/09/08 08:50:46;;;;;;;24.98;9.88;;;;;;;20.98;79.60;100679.72;5029863;28;20029;-76
2022/09/08 08:53:36;;;;;;;19.38;9.68;;;;;;;21.72;72.01;100685.72;5013901;28;20121;-74
2022/09/08 08:56:25;;;;;;;27.60;9.68;;;;;;;22.46;70.73;100680.31;5013508;28;20029;-76
2022/09/08 08:58:56;;;;;;;18.40;10.23;;;;;;;22.53;67.90;100680.88;5015156;28;20119;-76
2022/09/08 09:01:34;;;;;;;19.63;7.45;;;;;;;22.52;66.76;100684.72;5029808;28;20068;-76
2022/09/08 09:04:24;;;;;;;15.00;5.97;;;;;;;23.81;64.21;100681.34;5015006;28;20100;-76
2022/09/08 09:07:04;;;;;;;12.52;5.93;;;;;;;22.89;63.76;100683.00;5033029;28;20082;-75
2022/09/08 09:10:00;;;;;;;16.83;7.53;;;;;;;22.64;64.85;100697.41;5030828;28;20033;-76
2022/09/08 09:12:51;;;;;;;22.70;8.73;;;;;;;21.52;66.80;100691.84;5001435;28;20026;-75
2022/09/08 09:15:48;;;;;;;21.70;8.38;;;;;;;21.60;67.58;100672.22;5014410;28;20300;-76
2022/09/08 09:18:50;;;;;;;20.40;8.87;;;;;;;21.78;65.59;100685.53;5014817;28;20029;-77
2022/09/08 09:21:39;;;;;;;19.77;8.77;;;;;;;21.72;66.64;100685.72;5026688;28;20037;-76
2022/09/08 09:24:23;;;;;;;19.60;7.85;;;;;;;21.35;67.12;100673.56;5019383;28;20068;-77
2022/09/08 09:26:53;;;;;;;22.15;6.88;;;;;;;21.58;66.00;100675.19;5032553;28;20053;-76
2022/09/08 09:29:25;;;;;;;19.02;7.43;;;;;;;22.24;63.87;100676.88;5032814;28;20030;-76
2022/09/08 09:32:04;;;;;;;14.13;7.50;;;;;;;22.04;64.15;100681.09;5032562;28;20029;-77
2022/09/08 09:35:00;;;;;;;17.73;9.30;;;;;;;21.93;65.82;100684.81;5020234;28;20036;-76
2022/09/08 09:37:44;;;;;;;22.77;9.32;;;;;;;21.07;68.14;100680.09;5008843;28;20038;-76
2022/09/08 09:40:32;;;;;;;29.05;9.60;;;;;;;20.64;69.13;100681.72;5030889;28;20108;-76
2022/09/08 09:43:22;;;;;;;24.80;10.05;;;;;;;20.39;70.72;100684.91;5015727;28;20045;-76
2022/09/08 09:46:24;;;;;;;20.65;9.13;;;;;;;19.88;73.04;100676.75;5032634;28;20025;-76
2022/09/08 09:49:14;;;;;;;28.92;9.85;;;;;;;19.44;74.78;100687.41;5031652;28;20032;-76
2022/09/08 09:52:24;;;;;;;29.40;10.23;;;;;;;19.40;76.64;100679.97;5014162;28;20535;-77
2022/09/08 09:55:02;;;;;;;21.95;9.73;;;;;;;19.46;74.18;100677.09;4989338;28;20035;-76
2022/09/08 09:57:37;;;;;;;26.02;10.60;;;;;;;19.80;74.99;100671.72;5011117;28;20049;-76
2022/09/08 10:00:12;;;;;;;32.40;10.93;;;;;;;19.83;73.48;100676.69;5031588;28;20503;-76
2022/09/08 10:02:56;;;;;;;22.55;10.55;;;;;;;19.73;73.91;100671.84;5032287;28;20022;-76
2022/09/08 10:05:52;;;;;;;31.67;9.85;;;;;;;19.79;74.74;100675.50;5032939;28;20401;-76
2022/09/08 10:08:36;;;;;;;26.77;10.05;;;;;;;20.02;73.99;100674.53;5038005;28;20105;-77
2022/09/08 10:11:37;;;;;;;25.00;9.63;;;;;;;19.77;71.50;100676.81;5021065;28;20033;-76
2022/09/08 10:14:29;;;;;;;19.58;8.77;;;;;;;19.78;71.24;100673.84;5032686;28;20036;-75
2022/09/08 10:17:32;;;;;;;26.58;10.00;;;;;;;19.92;72.28;100666.16;5032974;28;20033;-76
2022/09/08 10:20:22;;;;;;;18.85;9.20;;;;;;;20.00;69.57;100673.13;5029894;28;20061;-76
2022/09/08 10:22:59;;;;;;;19.48;9.48;;;;;;;20.19;68.95;100679.97;5029661;28;20034;-75
2022/09/08 10:25:52;;;;;;;22.80;10.32;;;;;;;19.93;70.58;100676.84;5032358;28;20071;-75
2022/09/08 10:28:31;;;;;;;29.95;9.32;;;;;;;20.03;70.82;100664.41;5031293;28;20396;-76
2022/09/08 10:31:34;;;;;;;28.77;8.90;;;;;;;20.25;70.55;100670.78;5030009;28;20029;-75
2022/09/08 10:34:03;;;;;;;29.83;8.57;;;;;;;20.30;68.20;100664.53;5030135;28;20025;-75
2022/09/08 10:36:41;;;;;;;31.15;8.48;;;;;;;20.42;69.11;100678.13;5013532;28;20025;-76
2022/09/08 10:39:37;;;;;;;26.88;7.88;;;;;;;20.29;69.50;100668.38;5030961;28;20029;-75
2022/09/08 10:42:30;;;;;;;26.42;6.70;;;;;;;20.42;68.11;100672.66;5029130;28;20038;-76
2022/09/08 10:45:28;;;;;;;29.90;7.90;;;;;;;20.54;68.94;100673.41;4993537;28;20040;-75
2022/09/08 10:47:53;;;;;;;21.42;7.43;;;;;;;20.64;66.49;100680.91;5012451;28;20041;-75
2022/09/08 10:50:23;;;;;;;28.05;7.78;;;;;;;20.40;66.43;100678.38;5011408;28;20025;-76
2022/09/08 10:53:07;;;;;;;25.98;8.13;;;;;;;20.31;66.67;100677.16;4993296;28;20034;-75
2022/09/08 10:55:36;;;;;;;29.92;7.68;;;;;;;20.22;67.81;100673.16;5012006;28;20076;-76
2022/09/08 10:58:18;;;;;;;35.13;7.20;;;;;;;20.33;68.71;100675.00;5012952;28;20438;-77
2022/09/08 11:00:47;;;;;;;23.63;7.03;;;;;;;20.78;67.17;100679.47;5012772;28;20064;-77
2022/09/08 11:03:25;;;;;;;28.73;7.78;;;;;;;20.74;64.33;100670.94;4995590;28;20193;-76
2022/09/08 11:05:56;;;;;;;35.47;8.75;;;;;;;20.97;63.52;100677.25;5011229;28;20072;-76
2022/09/08 11:08:31;;;;;;;21.85;6.25;;;;;;;20.93;61.96;100679.69;5010531;28;20049;-76
2022/09/08 11:11:17;;;;;;;23.92;6.75;;;;;;;21.11;64.16;100675.75;5010924;28;20029;-76
2022/09/08 11:13:59;;;;;;;31.13;6.82;;;;;;;21.45;62.05;100675.63;4993518;28;20037;-76
2022/09/08 11:16:25;;;;;;;21.98;7.47;;;;;;;21.69;60.66;100676.13;4993425;28;20029;-76
2022/09/08 11:18:52;;;;;;;27.42;6.10;;;;;;;21.48;60.48;100672.34;5010781;28;20112;-76
2022/09/08 11:21:25;;;;;;;;;;;;;;;21.25;60.68;100681.69;5011922;28;20049;-75
2022/09/08 11:24:04;;;;;;;21.40;6.30;;;;;;;21.34;60.41;100665.63;5012486;28;19917;-76
2022/09/08 11:26:52;;;;;;;24.27;7.28;;;;;;;22.06;58.24;100676.16;4994499;28;20037;-76
2022/09/08 11:29:18;;;;;;;26.65;5.40;;;;;;;21.42;59.57;100673.41;4993358;28;20038;-76
2022/09/08 11:32:10;;;;;;;17.50;4.88;;;;;;;22.05;58.11;100674.50;5011119;28;20037;-76
2022/09/08 11:34:50;;;;;;;22.20;4.72;;;;;;;22.91;57.03;100670.66;4993385;28;20060;-78
2022/09/08 11:37:24;;;;;;;24.52;4.72;;;;;;;22.91;56.18;100678.06;5014596;28;20113;-77
2022/09/08 11:40:11;;;;;;;21.63;3.95;;;;;;;23.32;53.81;100675.47;5013353;28;20026;-77
2022/09/08 11:43:04;;;;;;;23.58;4.30;;;;;;;22.94;53.76;100680.28;5013007;28;20125;-74